Aérodrome :
LOGIN :

S'inscrire | Disclaimer

   EN    FR    IT 

 










Légende :    VFR   VFR Marginal   IFR   IFR Intensif   IFR Très Intensif
Visi : 
Plafond : 
>= 8 km
>= 3000ft
5 à 8 km
1000 à 3000 ft
1500m à 5 km
500 à 1000 ft
800 à 1500m
200 à 500 ft
< 800m
< 200 ft
Symboles :   Orages  Brouillard  Fortes neiges  Fortes précipitations  Vent > 20 kt
SIGMETs :   Divers  Orages  Givrage  Turbulence  Onde Orograph.  Cendres Volcan.







- Altitude de l'aérodrome : 1906 ft
- Code IATA : INN


LOWI - Innsbruck

DERNIER METAR :
  • 230250Z AUTO 24003KT 9999 SCT080 10/08 Q1019

METARs EXPIRÉS :
  • 230220Z AUTO 28004KT 9999 FEW080 10/09 Q1019
  • 230150Z AUTO VRB02KT 9999 FEW080 BKN090 11/09 Q1019
  • 230120Z AUTO VRB02KT 9999 FEW080 11/09 Q1019
  • 230050Z VRB01KT 9999 FEW060 11/09 Q1019 NOSIG
  • 230020Z 30002KT 9999 FEW060 11/09 Q1019 NOSIG

TAF TAF LOWI
Valide du 23 à 00h jusqu'au 24 à 00h UTC


222315Z 2300/2324 27004KT CAVOK TX23/2314Z TN09/2304Z
BECMG 2308/2310 08008KT 9999 FEW080 BKN300
BECMG 2318/2320 27010KT SCT050 BKN100
Pas de NOTAMs connus pour ce terrain.



MET'MAP, la Météo Aéronautique d'un coup d'oeil ! - Copyright ORBIFLY Décembre 2007 - Disclaimer

ORBIFLY MET'MAP TEAM :

Programmation & Développement : Alexandra Zaïnal
Conception & Développement : Baudouin d'Aumeries
Co-Programmation & Développement : Marc-Olivier Méhu
Soutien technique & logistique : Manuel Goepfert

Contact : metmap@orbifly.com




SOURCES & CREDITS :

   NOAA